createdAt,value
2023-05-26T00:00:36.403Z,12.10
2023-05-26T00:03:10.732Z,12.00
2023-05-26T00:05:44.629Z,11.90
2023-05-26T00:08:18.322Z,11.90
2023-05-26T00:10:52.198Z,11.90
2023-05-26T00:13:25.883Z,11.90
2023-05-26T00:15:59.189Z,11.80
2023-05-26T00:18:34.767Z,11.70
2023-05-26T00:21:08.037Z,11.70
2023-05-26T00:23:41.419Z,11.60
2023-05-26T00:26:15.125Z,11.50
2023-05-26T00:28:48.718Z,11.50
2023-05-26T00:31:22.051Z,11.50
2023-05-26T00:33:55.049Z,11.50
2023-05-26T00:36:28.334Z,11.40
2023-05-26T00:39:01.634Z,11.40
2023-05-26T00:41:35.159Z,11.40
2023-05-26T00:44:08.593Z,11.30
2023-05-26T00:46:42.200Z,11.20
2023-05-26T00:49:16.014Z,11.30
2023-05-26T00:51:51.039Z,11.30
2023-05-26T00:54:25.756Z,11.20
2023-05-26T00:57:00.121Z,11.10
2023-05-26T00:59:34.234Z,11.10
2023-05-26T01:02:07.905Z,11.00
2023-05-26T01:04:42.195Z,11.10
2023-05-26T01:07:15.466Z,11.20
2023-05-26T01:09:49.766Z,11.10
2023-05-26T01:12:34.573Z,11.10
2023-05-26T01:15:14.240Z,11.00
2023-05-26T01:17:58.681Z,11.00
2023-05-26T01:20:40.524Z,10.90
2023-05-26T01:23:39.716Z,10.90
2023-05-26T01:26:43.624Z,10.90
2023-05-26T01:29:21.003Z,10.90
2023-05-26T01:31:54.923Z,10.90
2023-05-26T01:34:28.499Z,10.80
2023-05-26T01:37:01.903Z,10.70
2023-05-26T01:39:36.355Z,10.80
2023-05-26T01:42:30.762Z,10.70
2023-05-26T01:45:13.447Z,10.80
2023-05-26T01:47:51.659Z,10.60
2023-05-26T01:50:36.874Z,10.60
2023-05-26T01:53:14.606Z,10.60
2023-05-26T01:55:50.499Z,10.60
2023-05-26T01:58:25.028Z,10.50
2023-05-26T02:00:59.298Z,10.40
2023-05-26T02:03:32.793Z,10.40
2023-05-26T02:06:06.388Z,10.40
2023-05-26T02:08:39.660Z,10.40
2023-05-26T02:11:12.939Z,10.30
2023-05-26T02:13:47.228Z,10.30
2023-05-26T02:16:22.794Z,10.20
2023-05-26T02:18:58.045Z,10.30
2023-05-26T02:21:32.451Z,10.20
2023-05-26T02:24:06.116Z,10.20
2023-05-26T02:26:39.434Z,10.20
2023-05-26T02:29:13.289Z,10.10
2023-05-26T02:31:46.332Z,10.10
2023-05-26T02:34:20.062Z,10.10
2023-05-26T02:36:56.311Z,10.10
2023-05-26T02:39:30.999Z,10.00
2023-05-26T02:42:04.312Z,9.90
2023-05-26T02:44:37.575Z,9.80
2023-05-26T02:47:10.897Z,9.90
2023-05-26T02:49:44.658Z,9.90
2023-05-26T02:52:18.311Z,9.70
2023-05-26T02:54:52.190Z,9.60
2023-05-26T02:57:25.536Z,9.60
2023-05-26T02:59:58.857Z,9.60
2023-05-26T03:02:31.992Z,9.70
2023-05-26T03:05:05.766Z,9.60
2023-05-26T03:07:39.184Z,9.50
2023-05-26T03:10:14.683Z,9.60
2023-05-26T03:12:47.941Z,9.60
2023-05-26T03:15:21.239Z,9.70
2023-05-26T03:17:54.554Z,9.70
2023-05-26T03:20:28.219Z,9.60
2023-05-26T03:23:01.923Z,9.70
2023-05-26T03:25:35.402Z,9.70
2023-05-26T03:28:08.644Z,9.70
2023-05-26T03:30:41.902Z,9.60
2023-05-26T03:33:15.151Z,9.50
2023-05-26T03:35:48.704Z,9.60
2023-05-26T03:38:22.384Z,9.60
2023-05-26T03:40:56.384Z,9.60
2023-05-26T03:43:29.984Z,9.50
2023-05-26T03:46:03.333Z,9.50
2023-05-26T03:48:36.601Z,9.40
2023-05-26T03:51:10.156Z,9.40
2023-05-26T03:53:43.827Z,9.40
2023-05-26T03:56:17.113Z,9.30
2023-05-26T03:58:50.366Z,9.40
2023-05-26T04:01:23.712Z,9.40
2023-05-26T04:03:57.059Z,9.30
2023-05-26T04:06:31.469Z,9.20
2023-05-26T04:09:05.612Z,9.30
2023-05-26T04:11:38.926Z,9.20
2023-05-26T04:14:12.181Z,9.10
2023-05-26T04:16:46.174Z,9.10
2023-05-26T04:19:19.430Z,9.10
2023-05-26T04:21:53.321Z,9.20
2023-05-26T04:24:28.050Z,9.20
2023-05-26T04:27:03.216Z,9.20
2023-05-26T04:29:36.708Z,9.10
2023-05-26T04:32:13.094Z,9.00
2023-05-26T04:34:46.989Z,9.10
2023-05-26T04:37:20.356Z,9.10
2023-05-26T04:39:53.723Z,9.20
2023-05-26T04:42:27.172Z,9.20
2023-05-26T04:45:01.574Z,9.10
2023-05-26T04:47:36.125Z,9.20
2023-05-26T04:50:13.473Z,9.10
2023-05-26T04:52:47.513Z,9.30
2023-05-26T04:55:20.854Z,9.20
2023-05-26T04:57:54.178Z,9.20
2023-05-26T05:00:31.403Z,9.30
2023-05-26T05:03:05.186Z,9.30
2023-05-26T05:05:38.241Z,9.20
2023-05-26T05:08:11.596Z,9.30
2023-05-26T05:10:45.237Z,9.20
2023-05-26T05:13:18.577Z,9.20
2023-05-26T05:15:51.971Z,9.20
2023-05-26T05:18:25.644Z,9.20
2023-05-26T05:20:58.769Z,9.30
2023-05-26T05:23:35.280Z,9.30
2023-05-26T05:26:09.028Z,9.30
2023-05-26T05:28:42.339Z,9.40
2023-05-26T05:31:15.688Z,9.40
2023-05-26T05:33:50.491Z,9.50
2023-05-26T05:36:23.513Z,9.50
2023-05-26T05:38:56.941Z,9.50
2023-05-26T05:41:30.794Z,9.40
2023-05-26T05:44:04.424Z,9.50
2023-05-26T05:46:37.967Z,9.60
2023-05-26T05:49:11.573Z,9.60
2023-05-26T05:51:44.821Z,9.60
2023-05-26T05:54:18.246Z,9.70
2023-05-26T05:56:51.516Z,9.70
2023-05-26T05:59:24.824Z,9.60
2023-05-26T06:01:58.150Z,9.60
2023-05-26T06:04:31.537Z,9.70
2023-05-26T06:07:04.770Z,9.70
2023-05-26T06:09:38.122Z,9.70
2023-05-26T06:12:14.742Z,9.60
2023-05-26T06:14:48.238Z,9.70
2023-05-26T06:17:21.586Z,9.70
2023-05-26T06:19:55.219Z,9.80
2023-05-26T06:22:28.407Z,9.80
2023-05-26T06:25:01.802Z,9.80
2023-05-26T06:27:35.073Z,9.90
2023-05-26T06:30:11.015Z,10.00
2023-05-26T06:32:44.830Z,10.00
2023-05-26T06:35:18.457Z,10.10
2023-05-26T06:37:51.664Z,10.10
2023-05-26T06:40:25.091Z,10.20
2023-05-26T06:42:58.482Z,10.20
2023-05-26T06:45:31.737Z,10.30
2023-05-26T06:48:05.100Z,10.30
2023-05-26T06:50:38.661Z,10.40
2023-05-26T06:53:11.652Z,10.40
2023-05-26T06:55:45.394Z,10.40
2023-05-26T06:58:18.694Z,10.50
2023-05-26T07:01:05.362Z,10.50
2023-05-26T07:03:38.970Z,10.60
2023-05-26T07:06:12.542Z,10.70
2023-05-26T07:08:46.411Z,10.80
2023-05-26T07:11:19.767Z,10.90
2023-05-26T07:13:56.179Z,10.90
2023-05-26T07:16:29.429Z,10.90
2023-05-26T07:19:03.310Z,11.00
2023-05-26T07:21:36.972Z,11.00
2023-05-26T07:24:10.396Z,11.10
2023-05-26T07:26:43.783Z,11.20
2023-05-26T07:29:17.052Z,11.10
2023-05-26T07:31:50.452Z,11.20
2023-05-26T07:34:24.010Z,11.30
2023-05-26T07:36:57.420Z,11.40
2023-05-26T07:39:30.554Z,11.40
2023-05-26T07:42:03.923Z,11.50
2023-05-26T07:44:37.180Z,11.50
2023-05-26T07:47:11.529Z,11.70
2023-05-26T07:49:44.794Z,11.70
2023-05-26T07:52:18.332Z,11.70
2023-05-26T07:54:51.702Z,11.80
2023-05-26T07:57:30.127Z,11.90
2023-05-26T08:00:06.158Z,12.00
2023-05-26T08:02:40.216Z,12.10
2023-05-26T08:05:13.918Z,12.20
2023-05-26T08:07:47.229Z,12.30
2023-05-26T08:10:20.410Z,12.30
2023-05-26T08:12:53.793Z,12.40
2023-05-26T08:15:27.264Z,12.50
2023-05-26T08:18:01.001Z,12.60
2023-05-26T08:20:34.685Z,12.70
2023-05-26T08:23:08.801Z,12.70
2023-05-26T08:25:41.785Z,12.80
2023-05-26T08:28:15.395Z,12.80
2023-05-26T08:30:49.011Z,13.00
2023-05-26T08:33:22.399Z,13.00
2023-05-26T08:35:56.189Z,13.10
2023-05-26T08:38:30.677Z,13.20
2023-05-26T08:41:07.840Z,13.30
2023-05-26T08:46:29.292Z,13.50
2023-05-26T08:49:04.679Z,13.60
2023-05-26T08:51:45.955Z,13.70
2023-05-26T08:54:19.517Z,13.80
2023-05-26T08:56:54.004Z,13.90
2023-05-26T08:59:29.930Z,14.00
2023-05-26T09:02:03.465Z,14.20
2023-05-26T09:04:37.166Z,14.20
2023-05-26T09:09:48.772Z,14.20
2023-05-26T09:12:23.189Z,14.20
2023-05-26T09:14:57.736Z,14.40
2023-05-26T09:17:36.718Z,14.40
2023-05-26T09:20:13.059Z,14.50
2023-05-26T09:22:48.141Z,14.60
2023-05-26T09:25:25.542Z,14.70
2023-05-26T09:28:06.681Z,14.70
2023-05-26T09:30:45.447Z,14.90
2023-05-26T09:33:21.192Z,15.10
2023-05-26T09:35:57.152Z,15.10
2023-05-26T09:38:33.549Z,15.10
2023-05-26T09:41:07.526Z,15.10
2023-05-26T09:43:40.517Z,15.20
2023-05-26T09:46:27.044Z,15.30
2023-05-26T09:49:22.588Z,15.30
2023-05-26T09:52:12.754Z,15.40
2023-05-26T09:54:47.159Z,15.50
2023-05-26T09:57:28.697Z,15.70
2023-05-26T10:00:08.816Z,15.70
2023-05-26T10:02:44.289Z,15.90
2023-05-26T10:05:19.677Z,16.00
2023-05-26T10:07:56.536Z,16.10
2023-05-26T10:10:32.553Z,16.10
2023-05-26T10:13:07.019Z,16.10
2023-05-26T10:15:40.349Z,16.30
2023-05-26T10:18:13.754Z,16.30
2023-05-26T10:20:55.676Z,16.40
2023-05-26T10:23:38.628Z,16.30
2023-05-26T10:26:21.391Z,16.40
2023-05-26T10:29:04.307Z,16.60
2023-05-26T10:31:41.250Z,16.80
2023-05-26T10:34:46.230Z,16.90
2023-05-26T10:37:21.842Z,16.90
2023-05-26T10:39:55.852Z,17.00
2023-05-26T10:42:32.743Z,17.10
2023-05-26T10:45:23.318Z,17.30
2023-05-26T10:48:07.130Z,17.30
2023-05-26T10:51:10.437Z,17.30
2023-05-26T10:53:48.556Z,17.50
2023-05-26T10:56:26.963Z,17.70
2023-05-26T10:59:04.647Z,17.60
2023-05-26T11:01:39.298Z,17.60
2023-05-26T11:04:15.771Z,17.80
2023-05-26T11:06:55.389Z,17.90
2023-05-26T11:09:30.732Z,18.10
2023-05-26T11:12:09.429Z,18.20
2023-05-26T11:14:42.775Z,18.30
2023-05-26T11:17:22.411Z,18.20
2023-05-26T11:20:03.554Z,18.20
2023-05-26T11:22:37.648Z,18.20
2023-05-26T11:25:13.397Z,18.30
2023-05-26T11:27:53.551Z,18.40
2023-05-26T11:30:36.353Z,18.40
2023-05-26T11:33:16.587Z,18.50
2023-05-26T11:35:49.579Z,18.70
2023-05-26T11:38:25.088Z,18.70
2023-05-26T11:40:58.452Z,18.70
2023-05-26T11:43:31.927Z,18.90
2023-05-26T11:46:08.540Z,18.90
2023-05-26T11:48:45.521Z,19.00
2023-05-26T11:51:21.402Z,19.20
2023-05-26T11:54:00.662Z,19.10
2023-05-26T11:56:41.118Z,19.20
2023-05-26T11:59:19.919Z,19.40
2023-05-26T12:01:53.761Z,19.40
2023-05-26T12:04:34.859Z,19.50
2023-05-26T12:07:07.992Z,19.70
2023-05-26T12:09:42.520Z,19.70
2023-05-26T12:12:16.633Z,19.90
2023-05-26T12:14:50.002Z,19.90
2023-05-26T12:17:25.254Z,20.00
2023-05-26T12:20:01.753Z,19.90
2023-05-26T12:22:35.343Z,19.80
2023-05-26T12:25:09.844Z,20.10
2023-05-26T12:27:43.632Z,20.20
2023-05-26T12:31:02.028Z,20.30
2023-05-26T12:33:22.676Z,20.30
2023-05-26T12:35:56.505Z,20.40
2023-05-26T12:38:40.401Z,20.60
2023-05-26T12:41:13.699Z,20.50
2023-05-26T12:43:46.967Z,20.60
2023-05-26T12:46:20.301Z,20.70
2023-05-26T12:48:56.649Z,21.10
2023-05-26T12:51:32.196Z,21.20
2023-05-26T12:54:06.292Z,20.00
2023-05-26T12:56:40.250Z,21.00
2023-05-26T12:59:19.507Z,21.00
2023-05-26T13:01:54.515Z,21.00
2023-05-26T13:04:29.072Z,21.00
2023-05-26T13:07:03.868Z,21.10
2023-05-26T13:09:37.190Z,21.20
2023-05-26T13:12:12.531Z,21.30
2023-05-26T13:14:45.859Z,21.20
2023-05-26T13:17:20.075Z,21.30
2023-05-26T13:19:53.847Z,21.50
2023-05-26T13:22:27.515Z,21.40
2023-05-26T13:25:00.987Z,21.40
2023-05-26T13:27:34.252Z,21.50
2023-05-26T13:30:08.707Z,21.60
2023-05-26T13:32:42.119Z,21.70
2023-05-26T13:35:16.088Z,21.70
2023-05-26T13:37:50.811Z,21.60
2023-05-26T13:40:25.726Z,21.80
2023-05-26T13:42:59.006Z,21.90
2023-05-26T13:45:33.702Z,21.90
2023-05-26T13:48:08.580Z,22.00
2023-05-26T13:50:42.191Z,22.20
2023-05-26T13:53:15.509Z,22.40
2023-05-26T13:55:50.881Z,22.40
2023-05-26T13:58:24.486Z,22.50
2023-05-26T14:00:58.454Z,22.20
2023-05-26T14:03:32.230Z,22.40
2023-05-26T14:06:05.853Z,22.30
2023-05-26T14:08:39.113Z,22.00
2023-05-26T14:11:12.389Z,22.30
2023-05-26T14:13:45.762Z,22.50
2023-05-26T14:16:19.106Z,22.50
2023-05-26T14:19:07.253Z,22.60
2023-05-26T14:22:09.416Z,22.60
2023-05-26T14:24:41.855Z,22.20
2023-05-26T14:27:15.419Z,22.40
2023-05-26T14:29:48.699Z,22.60
2023-05-26T14:32:22.027Z,22.60
2023-05-26T14:34:55.378Z,22.60
2023-05-26T14:37:29.170Z,22.50
2023-05-26T14:40:02.633Z,22.70
2023-05-26T14:42:36.400Z,22.70
2023-05-26T14:45:11.695Z,22.40
2023-05-26T14:47:45.079Z,22.50
2023-05-26T14:50:20.854Z,22.50
2023-05-26T14:52:56.025Z,22.50
2023-05-26T14:55:29.890Z,22.50
2023-05-26T14:58:11.098Z,22.30
2023-05-26T15:00:45.277Z,22.60
2023-05-26T15:03:18.698Z,22.60
2023-05-26T15:05:52.423Z,22.60
2023-05-26T15:08:26.060Z,22.60
2023-05-26T15:10:59.294Z,22.70
2023-05-26T15:13:32.519Z,22.50
2023-05-26T15:16:05.957Z,22.60
2023-05-26T15:18:39.613Z,22.70
2023-05-26T15:21:13.015Z,22.90
2023-05-26T15:23:46.679Z,22.80
2023-05-26T15:26:20.043Z,22.60
2023-05-26T15:28:53.282Z,22.60
2023-05-26T15:31:26.611Z,22.70
2023-05-26T15:34:00.041Z,22.80
2023-05-26T15:36:33.786Z,22.60
2023-05-26T15:39:07.403Z,22.70
2023-05-26T15:41:41.060Z,22.50
2023-05-26T15:44:14.961Z,22.60
2023-05-26T15:46:48.283Z,22.70
2023-05-26T15:49:23.098Z,22.50
2023-05-26T15:51:57.341Z,22.60
2023-05-26T15:54:30.840Z,22.60
2023-05-26T15:57:10.884Z,22.60
2023-05-26T15:59:54.875Z,22.50
2023-05-26T16:02:29.044Z,22.60
2023-05-26T16:05:02.446Z,22.60
2023-05-26T16:07:35.801Z,22.70
2023-05-26T16:10:11.986Z,22.60
2023-05-26T16:12:45.722Z,22.60
2023-05-26T16:15:21.211Z,22.40
2023-05-26T16:17:55.849Z,22.30
2023-05-26T16:20:29.264Z,22.40
2023-05-26T16:23:03.550Z,22.40
2023-05-26T16:25:36.905Z,22.30
2023-05-26T16:28:10.307Z,22.30
2023-05-26T16:30:43.423Z,22.10
2023-05-26T16:33:18.859Z,22.20
2023-05-26T16:35:54.287Z,22.00
2023-05-26T16:38:31.887Z,21.90
2023-05-26T16:41:05.430Z,22.00
2023-05-26T16:46:15.149Z,21.80
2023-05-26T16:48:48.637Z,21.70
2023-05-26T16:51:22.017Z,21.60
2023-05-26T16:53:55.380Z,21.50
2023-05-26T16:56:28.750Z,21.60
2023-05-26T16:59:02.059Z,21.60
2023-05-26T17:01:35.098Z,21.60
2023-05-26T17:04:10.890Z,21.60
2023-05-26T17:06:45.542Z,21.60
2023-05-26T17:09:19.031Z,21.50
2023-05-26T17:11:52.464Z,21.20
2023-05-26T17:14:25.742Z,21.00
2023-05-26T17:16:59.030Z,21.00
2023-05-26T17:19:33.487Z,20.80
2023-05-26T17:22:07.290Z,20.70
2023-05-26T17:24:40.728Z,20.90
2023-05-26T17:27:15.179Z,20.70
2023-05-26T17:29:48.490Z,20.70
2023-05-26T17:32:21.757Z,20.60
2023-05-26T17:34:55.021Z,20.60
2023-05-26T17:37:28.632Z,20.60
2023-05-26T17:40:02.312Z,20.50
2023-05-26T17:42:35.788Z,20.30
2023-05-26T17:45:12.192Z,20.30
2023-05-26T17:47:45.484Z,20.30
2023-05-26T17:50:19.057Z,20.20
2023-05-26T17:52:52.546Z,20.00
2023-05-26T17:55:25.947Z,19.90
2023-05-26T17:57:59.306Z,20.00
2023-05-26T18:00:32.849Z,20.10
2023-05-26T18:03:06.225Z,19.80
2023-05-26T18:05:39.874Z,19.80
2023-05-26T18:08:13.729Z,19.80
2023-05-26T18:10:47.140Z,19.60
2023-05-26T18:13:20.723Z,19.50
2023-05-26T18:15:54.321Z,19.40
2023-05-26T18:18:27.501Z,19.40
2023-05-26T18:21:01.195Z,19.20
2023-05-26T18:23:35.152Z,18.90
2023-05-26T18:26:09.098Z,18.90
2023-05-26T18:28:42.636Z,18.80
2023-05-26T18:31:16.288Z,18.90
2023-05-26T18:33:49.405Z,18.70
2023-05-26T18:36:22.731Z,18.70
2023-05-26T18:38:56.076Z,18.70
2023-05-26T18:41:29.448Z,18.60
2023-05-26T18:44:02.884Z,18.60
2023-05-26T18:46:36.355Z,18.50
2023-05-26T18:49:09.675Z,18.40
2023-05-26T18:51:43.078Z,18.30
2023-05-26T18:54:16.974Z,18.40
2023-05-26T18:56:50.283Z,18.20
2023-05-26T18:59:23.652Z,18.10
2023-05-26T19:01:56.908Z,18.10
2023-05-26T19:04:30.052Z,18.10
2023-05-26T19:07:03.381Z,17.90
2023-05-26T19:09:36.800Z,17.80
2023-05-26T19:12:10.944Z,17.90
2023-05-26T19:14:44.209Z,17.70
2023-05-26T19:17:17.476Z,17.70
2023-05-26T19:19:50.598Z,17.70
2023-05-26T19:22:23.913Z,17.50
2023-05-26T19:24:57.699Z,17.60
2023-05-26T19:27:31.130Z,17.60
2023-05-26T19:30:04.708Z,17.50
2023-05-26T19:32:38.629Z,17.30
2023-05-26T19:35:14.402Z,17.30
2023-05-26T19:37:47.962Z,17.30
2023-05-26T19:40:21.410Z,17.20
2023-05-26T19:42:54.983Z,17.20
2023-05-26T19:45:29.133Z,17.10
2023-05-26T19:48:02.552Z,17.00
2023-05-26T19:50:35.841Z,16.90
2023-05-26T19:53:09.143Z,17.00
2023-05-26T19:55:42.565Z,16.90
2023-05-26T19:58:15.896Z,16.80
2023-05-26T20:00:49.583Z,16.70
2023-05-26T20:03:23.549Z,16.70
2023-05-26T20:05:56.916Z,16.60
2023-05-26T20:08:31.523Z,16.60
2023-05-26T20:11:05.188Z,16.50
2023-05-26T20:13:38.690Z,16.60
2023-05-26T20:16:12.616Z,16.50
2023-05-26T20:18:45.967Z,16.40
2023-05-26T20:21:19.091Z,16.40
2023-05-26T20:23:52.690Z,16.30
2023-05-26T20:26:26.255Z,16.30
2023-05-26T20:28:59.912Z,16.10
2023-05-26T20:31:33.212Z,16.10
2023-05-26T20:34:06.478Z,16.00
2023-05-26T20:36:39.940Z,16.00
2023-05-26T20:39:13.691Z,15.90
2023-05-26T20:41:47.397Z,15.80
2023-05-26T20:44:21.020Z,15.60
2023-05-26T20:46:54.349Z,15.60
2023-05-26T20:49:27.986Z,15.60
2023-05-26T20:52:01.057Z,15.70
2023-05-26T20:54:34.438Z,15.60
2023-05-26T20:57:09.241Z,15.60
2023-05-26T20:59:45.580Z,15.60
2023-05-26T21:02:19.197Z,15.50
2023-05-26T21:04:52.810Z,15.50
2023-05-26T21:07:28.361Z,15.20
2023-05-26T21:10:01.968Z,15.20
2023-05-26T21:12:35.288Z,15.10
2023-05-26T21:15:11.327Z,15.10
2023-05-26T21:17:45.089Z,15.00
2023-05-26T21:20:18.530Z,14.90
2023-05-26T21:22:51.884Z,14.90
2023-05-26T21:25:25.125Z,14.80
2023-05-26T21:27:58.443Z,14.70
2023-05-26T21:30:32.186Z,14.60
2023-05-26T21:33:08.359Z,14.60
2023-05-26T21:35:42.124Z,14.60
2023-05-26T21:38:15.714Z,14.60
2023-05-26T21:40:49.001Z,14.50
2023-05-26T21:43:22.306Z,14.40
2023-05-26T21:45:56.089Z,14.30
2023-05-26T21:48:29.833Z,14.30
2023-05-26T21:51:03.250Z,14.30
2023-05-26T21:53:36.745Z,14.20
2023-05-26T21:56:11.323Z,14.10
2023-05-26T21:58:44.897Z,14.20
2023-05-26T22:01:18.267Z,14.10
2023-05-26T22:03:52.044Z,14.10
2023-05-26T22:06:25.855Z,14.10
2023-05-26T22:08:59.542Z,14.00
2023-05-26T22:11:33.091Z,14.00
2023-05-26T22:14:21.397Z,13.90
2023-05-26T22:16:58.554Z,14.00
2023-05-26T22:19:31.862Z,13.90
2023-05-26T22:22:05.734Z,13.80
2023-05-26T22:24:38.932Z,13.70
2023-05-26T22:27:12.371Z,13.70
2023-05-26T22:29:45.707Z,13.70
2023-05-26T22:32:19.053Z,13.70
2023-05-26T22:34:52.370Z,13.60
2023-05-26T22:37:25.757Z,13.60
2023-05-26T22:39:59.095Z,13.50
2023-05-26T22:42:32.383Z,13.40
2023-05-26T22:45:05.794Z,13.50
2023-05-26T22:47:39.143Z,13.40
2023-05-26T22:50:15.048Z,13.40
2023-05-26T22:52:48.358Z,13.30
2023-05-26T22:55:26.058Z,13.40
2023-05-26T22:58:06.097Z,13.10
2023-05-26T23:00:39.731Z,13.20
2023-05-26T23:03:13.463Z,13.30
2023-05-26T23:05:47.184Z,13.10
2023-05-26T23:08:20.550Z,13.20
2023-05-26T23:10:53.542Z,13.20
2023-05-26T23:13:26.860Z,13.10
2023-05-26T23:16:00.469Z,12.90
2023-05-26T23:18:34.611Z,13.00
2023-05-26T23:21:08.906Z,12.90
2023-05-26T23:23:42.241Z,12.70
2023-05-26T23:26:15.475Z,12.80
2023-05-26T23:28:48.758Z,12.80
2023-05-26T23:31:22.242Z,12.80
2023-05-26T23:33:55.912Z,12.70
2023-05-26T23:36:29.282Z,12.70
2023-05-26T23:39:02.521Z,12.60
2023-05-26T23:41:35.897Z,12.60
2023-05-26T23:44:09.240Z,12.50
2023-05-26T23:46:42.651Z,12.60
2023-05-26T23:49:16.378Z,12.50
2023-05-26T23:51:49.701Z,12.50
2023-05-26T23:54:23.026Z,12.50
2023-05-26T23:56:56.055Z,12.50
2023-05-26T23:59:29.586Z,12.40
